createdAt,value
2022-10-22T00:00:42.387Z,95454.22
2022-10-22T00:03:09.601Z,95454.75
2022-10-22T00:05:37.057Z,95455.06
2022-10-22T00:08:04.147Z,95451.56
2022-10-22T00:10:31.305Z,95451.53
2022-10-22T00:12:58.347Z,95453.94
2022-10-22T00:15:25.455Z,95457.47
2022-10-22T00:17:52.533Z,95458.03
2022-10-22T00:20:19.752Z,95455.09
2022-10-22T00:22:46.785Z,95450.75
2022-10-22T00:25:14.149Z,95440.03
2022-10-22T00:27:41.556Z,95426.91
2022-10-22T00:30:09.300Z,95436.88
2022-10-22T00:32:36.423Z,95442.50
2022-10-22T00:35:04.086Z,95440.88
2022-10-22T00:37:31.597Z,95428.56
2022-10-22T00:39:58.723Z,95432.31
2022-10-22T00:42:29.687Z,95436.88
2022-10-22T00:45:16.901Z,95452.44
2022-10-22T00:48:00.348Z,95444.69
2022-10-22T00:50:34.735Z,95443.06
2022-10-22T00:53:04.629Z,95434.72
2022-10-22T00:55:33.291Z,95429.91
2022-10-22T00:58:01.828Z,95425.38
2022-10-22T01:00:29.074Z,95423.75
2022-10-22T01:02:58.099Z,95428.06
2022-10-22T01:05:29.561Z,95425.38
2022-10-22T01:07:56.786Z,95417.31
2022-10-22T01:10:59.891Z,95405.53
2022-10-22T01:13:58.924Z,95415.19
2022-10-22T01:16:37.823Z,95413.06
2022-10-22T01:19:36.311Z,95396.94
2022-10-22T01:22:20.537Z,95398.81
2022-10-22T01:25:34.596Z,95396.41
2022-10-22T01:28:40.139Z,95387.56
2022-10-22T01:31:10.365Z,95378.16
2022-10-22T01:33:39.600Z,95384.59
2022-10-22T01:36:08.020Z,95383.28
2022-10-22T01:38:35.202Z,95374.97
2022-10-22T01:41:03.132Z,95381.38
2022-10-22T01:43:30.148Z,95370.13
2022-10-22T01:46:01.241Z,95376.00
2022-10-22T01:49:04.708Z,95380.03
2022-10-22T01:52:12.657Z,95383.25
2022-10-22T01:55:11.099Z,95381.09
2022-10-22T01:58:18.629Z,95375.75
2022-10-22T02:00:54.799Z,95391.03
2022-10-22T02:03:28.943Z,95381.94
2022-10-22T02:06:02.110Z,95380.84
2022-10-22T02:08:33.061Z,95377.59
2022-10-22T02:11:01.245Z,95373.88
2022-10-22T02:13:37.003Z,95370.09
2022-10-22T02:16:08.483Z,95374.13
2022-10-22T02:18:40.746Z,95361.53
2022-10-22T02:23:36.194Z,95374.41
2022-10-22T02:26:11.790Z,95381.38
2022-10-22T02:28:53.024Z,95380.28
2022-10-22T02:31:24.700Z,95386.72
2022-10-22T02:33:55.007Z,95383.50
2022-10-22T02:36:24.050Z,95381.38
2022-10-22T02:38:52.357Z,95387.25
2022-10-22T02:41:20.546Z,95390.47
2022-10-22T02:43:57.086Z,95389.94
2022-10-22T02:46:25.178Z,95392.09
2022-10-22T02:48:52.185Z,95392.34
2022-10-22T02:51:19.213Z,95391.53
2022-10-22T02:53:46.218Z,95394.22
2022-10-22T02:56:14.429Z,95377.06
2022-10-22T02:58:41.423Z,95393.16
2022-10-22T03:01:10.358Z,95391.78
2022-10-22T03:03:39.440Z,95391.00
2022-10-22T03:06:07.116Z,95389.91
2022-10-22T03:08:35.063Z,95375.44
2022-10-22T03:11:02.058Z,95382.94
2022-10-22T03:13:29.541Z,95383.50
2022-10-22T03:15:56.488Z,95374.94
2022-10-22T03:18:23.624Z,95379.75
2022-10-22T03:20:50.691Z,95370.38
2022-10-22T03:23:20.352Z,95379.50
2022-10-22T03:25:49.767Z,95376.53
2022-10-22T03:28:19.038Z,95380.31
2022-10-22T03:30:46.078Z,95373.06
2022-10-22T03:33:13.099Z,95374.66
2022-10-22T03:35:45.761Z,95379.50
2022-10-22T03:38:14.896Z,95367.97
2022-10-22T03:40:43.948Z,95364.75
2022-10-22T03:43:11.309Z,95368.50
2022-10-22T03:48:10.259Z,95376.00
2022-10-22T03:50:37.290Z,95366.34
2022-10-22T03:53:04.557Z,95368.78
2022-10-22T03:55:31.598Z,95374.66
2022-10-22T03:57:58.657Z,95377.59
2022-10-22T04:00:25.646Z,95365.28
2022-10-22T04:02:52.661Z,95359.91
2022-10-22T04:05:19.594Z,95370.13
2022-10-22T04:07:46.794Z,95375.72
2022-10-22T04:10:13.902Z,95374.66
2022-10-22T04:12:40.904Z,95355.09
2022-10-22T04:15:08.906Z,95359.38
2022-10-22T04:17:36.728Z,95358.84
2022-10-22T04:20:05.234Z,95354.81
2022-10-22T04:22:36.376Z,95361.50
2022-10-22T04:25:04.912Z,95354.56
2022-10-22T04:27:33.298Z,95354.84
2022-10-22T04:30:00.259Z,95361.53
2022-10-22T04:32:28.525Z,95377.34
2022-10-22T04:34:55.466Z,95361.53
2022-10-22T04:37:22.490Z,95358.03
2022-10-22T04:39:49.511Z,95362.63
2022-10-22T04:42:16.561Z,95360.44
2022-10-22T04:44:43.660Z,95360.72
2022-10-22T04:47:10.677Z,95363.13
2022-10-22T04:49:37.780Z,95369.31
2022-10-22T04:52:04.874Z,95377.63
2022-10-22T04:54:33.163Z,95379.78
2022-10-22T04:57:00.451Z,95383.53
2022-10-22T04:59:27.473Z,95373.59
2022-10-22T05:01:54.606Z,95377.34
2022-10-22T05:04:21.788Z,95388.34
2022-10-22T05:06:48.905Z,95402.56
2022-10-22T05:09:19.870Z,95409.81
2022-10-22T05:11:49.157Z,95402.28
2022-10-22T05:14:18.644Z,95411.69
2022-10-22T05:16:49.054Z,95396.94
2022-10-22T05:19:24.274Z,95394.53
2022-10-22T05:21:53.129Z,95393.44
2022-10-22T05:24:20.781Z,95394.78
2022-10-22T05:26:54.719Z,95411.44
2022-10-22T05:29:22.525Z,95407.13
2022-10-22T05:31:50.066Z,95406.34
2022-10-22T05:34:17.325Z,95404.47
2022-10-22T05:36:44.319Z,95409.00
2022-10-22T05:39:11.383Z,95403.34
2022-10-22T05:41:38.571Z,95399.06
2022-10-22T05:44:06.126Z,95400.66
2022-10-22T05:46:36.278Z,95406.00
2022-10-22T05:49:06.222Z,95408.97
2022-10-22T05:51:35.829Z,95403.88
2022-10-22T05:54:05.321Z,95399.56
2022-10-22T05:56:32.847Z,95403.28
2022-10-22T05:59:00.745Z,95404.34
2022-10-22T06:01:30.292Z,95404.84
2022-10-22T06:04:00.160Z,95408.06
2022-10-22T06:06:49.315Z,95398.06
2022-10-22T06:09:23.791Z,95408.00
2022-10-22T06:11:51.482Z,95409.56
2022-10-22T06:14:19.527Z,95411.94
2022-10-22T06:16:46.823Z,95408.41
2022-10-22T06:19:15.675Z,95419.38
2022-10-22T06:21:42.716Z,95414.78
2022-10-22T06:24:10.775Z,95411.56
2022-10-22T06:26:37.728Z,95415.28
2022-10-22T06:29:04.966Z,95413.59
2022-10-22T06:31:38.080Z,95421.88
2022-10-22T06:34:07.362Z,95421.53
2022-10-22T06:36:35.157Z,95415.59
2022-10-22T06:39:02.206Z,95405.63
2022-10-22T06:41:29.772Z,95412.28
2022-10-22T06:43:58.119Z,95410.59
2022-10-22T06:46:26.389Z,95407.56
2022-10-22T06:48:58.759Z,95414.28
2022-10-22T06:51:27.360Z,95418.28
2022-10-22T06:53:56.011Z,95418.50
2022-10-22T06:56:25.262Z,95414.22
2022-10-22T06:58:53.760Z,95422.75
2022-10-22T07:01:23.968Z,95414.53
2022-10-22T07:03:52.024Z,95415.78
2022-10-22T07:06:20.225Z,95416.00
2022-10-22T07:08:47.725Z,95418.03
2022-10-22T07:11:18.395Z,95414.75
2022-10-22T07:13:46.473Z,95410.25
2022-10-22T07:16:14.101Z,95413.66
2022-10-22T07:18:42.031Z,95412.78
2022-10-22T07:21:11.442Z,95412.13
2022-10-22T07:23:39.122Z,95408.72
2022-10-22T07:26:07.890Z,95408.63
2022-10-22T07:28:36.837Z,95409.00
2022-10-22T07:31:04.187Z,95410.38
2022-10-22T07:33:31.737Z,95405.34
2022-10-22T07:36:03.189Z,95408.09
2022-10-22T07:38:31.834Z,95396.94
2022-10-22T07:40:59.341Z,95395.34
2022-10-22T07:43:27.144Z,95395.84
2022-10-22T07:45:56.133Z,95387.88
2022-10-22T07:48:23.580Z,95389.31
2022-10-22T07:50:51.524Z,95387.03
2022-10-22T07:53:19.568Z,95386.41
2022-10-22T07:55:50.653Z,95385.63
2022-10-22T07:58:19.059Z,95390.44
2022-10-22T08:00:46.547Z,95386.25
2022-10-22T08:03:14.998Z,95386.25
2022-10-22T08:05:44.010Z,95380.19
2022-10-22T08:08:12.203Z,95378.91
2022-10-22T08:10:40.074Z,95374.13
2022-10-22T08:13:08.495Z,95376.84
2022-10-22T08:15:36.240Z,95371.09
2022-10-22T08:18:03.881Z,95371.00
2022-10-22T08:20:31.418Z,95362.38
2022-10-22T08:22:59.209Z,95366.41
2022-10-22T08:25:26.945Z,95368.06
2022-10-22T08:27:54.359Z,95374.97
2022-10-22T08:30:21.598Z,95363.94
2022-10-22T08:32:51.615Z,95367.41
2022-10-22T08:35:21.095Z,95364.31
2022-10-22T08:37:48.310Z,95362.91
2022-10-22T08:40:38.894Z,95357.28
2022-10-22T08:43:41.995Z,95355.03
2022-10-22T08:46:47.473Z,95361.44
2022-10-22T08:49:22.046Z,95361.78
2022-10-22T08:51:49.631Z,95369.53
2022-10-22T08:54:52.182Z,95370.25
2022-10-22T08:57:52.835Z,95361.03
2022-10-22T09:00:46.406Z,95363.09
2022-10-22T09:03:35.989Z,95352.28
2022-10-22T09:06:15.080Z,95349.19
2022-10-22T09:08:44.205Z,95349.06
2022-10-22T09:11:33.342Z,95347.97
2022-10-22T09:14:01.359Z,95348.34
2022-10-22T09:17:05.309Z,95345.53
2022-10-22T09:19:55.890Z,95342.53
2022-10-22T09:23:04.674Z,95338.56
2022-10-22T09:25:36.548Z,95332.19
2022-10-22T09:28:06.127Z,95332.78
2022-10-22T09:30:38.355Z,95327.84
2022-10-22T09:33:14.962Z,95332.78
2022-10-22T09:36:07.334Z,95330.72
2022-10-22T09:38:40.884Z,95318.22
2022-10-22T09:41:09.395Z,95318.06
2022-10-22T09:43:36.596Z,95309.25
2022-10-22T09:46:06.324Z,95308.88
2022-10-22T09:48:41.498Z,95311.00
2022-10-22T09:51:18.714Z,95313.19
2022-10-22T09:53:56.697Z,95319.34
2022-10-22T09:56:41.901Z,95311.56
2022-10-22T09:59:19.972Z,95303.75
2022-10-22T10:01:47.053Z,95298.72
2022-10-22T10:04:16.821Z,95297.97
2022-10-22T10:06:45.017Z,95292.06
2022-10-22T10:09:17.075Z,95295.78
2022-10-22T10:11:53.525Z,95281.06
2022-10-22T10:15:28.388Z,95284.63
2022-10-22T10:18:29.365Z,95279.91
2022-10-22T10:21:34.055Z,95273.34
2022-10-22T10:24:25.112Z,95279.75
2022-10-22T10:27:26.042Z,95277.47
2022-10-22T10:30:18.061Z,95269.41
2022-10-22T10:33:09.932Z,95268.38
2022-10-22T10:36:08.876Z,95257.84
2022-10-22T10:39:00.339Z,95247.66
2022-10-22T10:42:11.062Z,95244.06
2022-10-22T10:45:11.389Z,95248.50
2022-10-22T10:48:37.752Z,95232.31
2022-10-22T10:51:37.895Z,95225.69
2022-10-22T10:55:03.891Z,95219.50
2022-10-22T10:58:08.146Z,95213.44
2022-10-22T11:01:03.694Z,95206.94
2022-10-22T11:04:30.102Z,95207.56
2022-10-22T11:07:10.925Z,95203.59
2022-10-22T11:09:55.459Z,95196.16
2022-10-22T11:12:29.922Z,95189.91
2022-10-22T11:15:09.311Z,95176.59
2022-10-22T11:17:42.613Z,95174.09
2022-10-22T11:20:23.497Z,95162.59
2022-10-22T11:23:19.453Z,95158.56
2022-10-22T11:25:49.590Z,95161.59
2022-10-22T11:28:41.454Z,95163.06
2022-10-22T11:31:16.472Z,95158.81
2022-10-22T11:34:32.133Z,95149.13
2022-10-22T11:36:59.496Z,95144.38
2022-10-22T11:39:51.336Z,95146.81
2022-10-22T11:42:36.462Z,95132.38
2022-10-22T11:45:33.814Z,95139.84
2022-10-22T11:48:28.138Z,95131.41
2022-10-22T11:51:01.185Z,95133.19
2022-10-22T11:53:36.788Z,95128.63
2022-10-22T11:56:22.999Z,95130.00
2022-10-22T11:58:53.940Z,95131.78
2022-10-22T12:01:40.830Z,95133.03
2022-10-22T12:04:19.577Z,95132.34
2022-10-22T12:07:02.632Z,95131.56
2022-10-22T12:09:33.093Z,95122.59
2022-10-22T12:12:12.640Z,95121.47
2022-10-22T12:14:57.057Z,95114.84
2022-10-22T12:17:25.584Z,95105.91
2022-10-22T12:20:14.342Z,95099.63
2022-10-22T12:22:42.583Z,95108.41
2022-10-22T12:25:18.350Z,95099.44
2022-10-22T12:27:52.118Z,95102.25
2022-10-22T12:30:35.123Z,95092.41
2022-10-22T12:33:06.358Z,95092.06
2022-10-22T12:35:44.327Z,95094.06
2022-10-22T12:38:17.066Z,95089.34
2022-10-22T12:40:47.677Z,95083.81
2022-10-22T12:43:18.909Z,95081.84
2022-10-22T12:45:49.683Z,95085.81
2022-10-22T12:48:24.662Z,95083.84
2022-10-22T12:50:54.967Z,95073.59
2022-10-22T12:53:42.523Z,95070.84
2022-10-22T12:56:18.090Z,95063.72
2022-10-22T12:59:14.350Z,95065.28
2022-10-22T13:01:43.127Z,95062.50
2022-10-22T13:04:35.350Z,95058.94
2022-10-22T13:07:21.846Z,95067.19
2022-10-22T13:10:00.138Z,95068.00
2022-10-22T13:12:29.045Z,95066.38
2022-10-22T13:14:55.980Z,95058.44
2022-10-22T13:17:41.360Z,95057.66
2022-10-22T13:20:18.516Z,95054.94
2022-10-22T13:23:03.495Z,95048.31
2022-10-22T13:25:33.181Z,95045.56
2022-10-22T13:28:18.553Z,95046.38
2022-10-22T13:31:00.523Z,95051.06
2022-10-22T13:33:35.070Z,95046.31
2022-10-22T13:36:02.853Z,95050.97
2022-10-22T13:38:30.756Z,95045.75
2022-10-22T13:40:57.962Z,95049.59
2022-10-22T13:43:25.754Z,95041.19
2022-10-22T13:45:55.940Z,95038.75
2022-10-22T13:48:24.696Z,95049.69
2022-10-22T13:50:53.104Z,95051.16
2022-10-22T13:53:25.617Z,95055.81
2022-10-22T13:55:52.738Z,95050.63
2022-10-22T13:58:25.214Z,95053.38
2022-10-22T14:00:56.049Z,95044.88
2022-10-22T14:03:28.563Z,95044.31
2022-10-22T14:05:55.749Z,95041.69
2022-10-22T14:08:25.589Z,95046.19
2022-10-22T14:10:53.352Z,95043.13
2022-10-22T14:13:21.466Z,95039.69
2022-10-22T14:15:50.717Z,95037.59
2022-10-22T14:18:25.797Z,95026.84
2022-10-22T14:20:56.337Z,95034.72
2022-10-22T14:23:25.991Z,95022.41
2022-10-22T14:25:53.437Z,95018.97
2022-10-22T14:28:20.621Z,95015.88
2022-10-22T14:30:48.266Z,95016.03
2022-10-22T14:33:19.199Z,95025.88
2022-10-22T14:35:48.620Z,95024.81
2022-10-22T14:38:16.064Z,95011.22
2022-10-22T14:40:44.032Z,95018.47
2022-10-22T14:43:20.609Z,95013.44
2022-10-22T14:45:48.014Z,95012.56
2022-10-22T14:48:16.284Z,95023.31
2022-10-22T14:50:45.100Z,95016.88
2022-10-22T14:53:14.046Z,95015.38
2022-10-22T14:55:43.151Z,95012.69
2022-10-22T14:58:12.471Z,95016.66
2022-10-22T15:00:42.305Z,95015.91
2022-10-22T15:03:10.133Z,95008.94
2022-10-22T15:05:43.626Z,95011.53
2022-10-22T15:08:11.639Z,95013.63
2022-10-22T15:10:38.871Z,95013.28
2022-10-22T15:13:06.272Z,95021.09
2022-10-22T15:15:36.659Z,95024.09
2022-10-22T15:18:06.628Z,95028.56
2022-10-22T15:20:33.668Z,95027.47
2022-10-22T15:23:00.684Z,95020.72
2022-10-22T15:25:27.771Z,95021.09
2022-10-22T15:27:58.479Z,95021.38
2022-10-22T15:30:29.058Z,95029.13
2022-10-22T15:32:56.160Z,95020.53
2022-10-22T15:35:23.183Z,95028.75
2022-10-22T15:37:53.343Z,95034.53
2022-10-22T15:40:20.380Z,95030.53
2022-10-22T15:42:47.495Z,95028.28
2022-10-22T15:45:15.890Z,95033.47
2022-10-22T15:47:47.702Z,95035.53
2022-10-22T15:50:15.338Z,95034.72
2022-10-22T15:52:42.268Z,95032.31
2022-10-22T15:55:10.798Z,95041.16
2022-10-22T15:57:39.302Z,95049.31
2022-10-22T16:00:08.161Z,95059.94
2022-10-22T16:02:42.152Z,95061.16
2022-10-22T16:05:09.888Z,95063.06
2022-10-22T16:07:37.018Z,95055.47
2022-10-22T16:10:04.952Z,95062.84
2022-10-22T16:12:31.869Z,95058.97
2022-10-22T16:14:58.822Z,95067.16
2022-10-22T16:17:25.845Z,95065.53
2022-10-22T16:19:52.893Z,95063.75
2022-10-22T16:22:20.030Z,95063.88
2022-10-22T16:24:47.125Z,95065.50
2022-10-22T16:27:14.261Z,95068.16
2022-10-22T16:29:42.187Z,95072.72
2022-10-22T16:32:09.199Z,95072.56
2022-10-22T16:34:36.275Z,95069.53
2022-10-22T16:37:03.355Z,95065.91
2022-10-22T16:39:30.327Z,95055.88
2022-10-22T16:41:57.423Z,95055.31
2022-10-22T16:44:24.533Z,95059.09
2022-10-22T16:46:51.716Z,95053.84
2022-10-22T16:49:18.838Z,95064.16
2022-10-22T16:51:45.957Z,95050.78
2022-10-22T16:54:14.194Z,95043.63
2022-10-22T16:56:41.417Z,95052.00
2022-10-22T16:59:08.589Z,95049.94
2022-10-22T17:01:40.285Z,95044.06
2022-10-22T17:04:08.221Z,95049.38
2022-10-22T17:06:35.267Z,95055.84
2022-10-22T17:09:02.354Z,95049.16
2022-10-22T17:11:35.194Z,95044.25
2022-10-22T17:14:03.644Z,95045.25
2022-10-22T17:16:30.932Z,95056.50
2022-10-22T17:18:58.515Z,95051.38
2022-10-22T17:21:25.710Z,95061.03
2022-10-22T17:23:57.076Z,95070.97
2022-10-22T17:26:26.883Z,95071.50
2022-10-22T17:28:55.077Z,95062.88
2022-10-22T17:31:37.643Z,95052.91
2022-10-22T17:34:06.826Z,95053.03
2022-10-22T17:36:36.021Z,95055.28
2022-10-22T17:39:06.817Z,95060.94
2022-10-22T17:41:36.724Z,95059.56
2022-10-22T17:44:06.221Z,95057.75
2022-10-22T17:46:33.268Z,95060.63
2022-10-22T17:49:04.189Z,95061.66
2022-10-22T17:51:32.546Z,95066.03
2022-10-22T17:53:59.704Z,95066.22
2022-10-22T17:56:30.215Z,95068.50
2022-10-22T17:58:57.517Z,95065.84
2022-10-22T18:01:27.590Z,95064.25
2022-10-22T18:03:58.577Z,95064.25
2022-10-22T18:06:25.562Z,95056.81
2022-10-22T18:11:27.075Z,95071.75
2022-10-22T18:13:56.245Z,95073.22
2022-10-22T18:16:23.390Z,95077.09
2022-10-22T18:18:53.362Z,95070.28
2022-10-22T18:21:21.534Z,95066.00
2022-10-22T18:23:48.555Z,95063.31
2022-10-22T18:26:17.956Z,95072.31
2022-10-22T18:28:46.673Z,95065.47
2022-10-22T18:31:18.454Z,95078.50
2022-10-22T18:33:45.877Z,95072.81
2022-10-22T18:36:16.486Z,95079.53
2022-10-22T18:38:43.510Z,95079.09
2022-10-22T18:41:13.973Z,95075.09
2022-10-22T18:43:41.040Z,95079.75
2022-10-22T18:46:08.132Z,95080.41
2022-10-22T18:48:37.911Z,95088.88
2022-10-22T18:51:08.688Z,95100.84
2022-10-22T18:53:37.675Z,95097.66
2022-10-22T18:56:05.993Z,95095.78
2022-10-22T18:58:38.036Z,95104.66
2022-10-22T19:01:14.234Z,95106.44
2022-10-22T19:03:41.736Z,95107.25
2022-10-22T19:06:08.856Z,95107.56
2022-10-22T19:08:36.890Z,95106.47
2022-10-22T19:11:09.932Z,95111.88
2022-10-22T19:13:37.385Z,95109.81
2022-10-22T19:16:11.851Z,95117.16
2022-10-22T19:18:39.155Z,95119.38
2022-10-22T19:21:06.413Z,95123.69
2022-10-22T19:23:33.594Z,95111.22
2022-10-22T19:26:15.707Z,95120.00
2022-10-22T19:28:43.516Z,95119.22
2022-10-22T19:31:12.946Z,95121.25
2022-10-22T19:33:40.123Z,95115.53
2022-10-22T19:36:12.637Z,95108.53
2022-10-22T19:38:42.192Z,95096.09
2022-10-22T19:41:12.695Z,95087.47
2022-10-22T19:43:40.315Z,95093.50
2022-10-22T19:46:07.890Z,95090.16
2022-10-22T19:48:36.080Z,95092.22
2022-10-22T19:51:06.005Z,95084.25
2022-10-22T19:53:33.558Z,95095.09
2022-10-22T19:56:00.919Z,95087.44
2022-10-22T19:58:28.638Z,95103.06
2022-10-22T20:00:55.851Z,95096.06
2022-10-22T20:03:23.650Z,95090.00
2022-10-22T20:05:51.510Z,95089.19
2022-10-22T20:08:18.497Z,95090.00
2022-10-22T20:10:49.220Z,95088.41
2022-10-22T20:13:16.640Z,95097.97
2022-10-22T20:15:43.861Z,95101.47
2022-10-22T20:18:10.951Z,95093.03
2022-10-22T20:20:38.327Z,95096.38
2022-10-22T20:23:05.502Z,95096.06
2022-10-22T20:25:32.498Z,95092.88
2022-10-22T20:27:59.453Z,95089.53
2022-10-22T20:30:26.465Z,95090.78
2022-10-22T20:32:53.563Z,95089.38
2022-10-22T20:35:20.603Z,95092.06
2022-10-22T20:37:47.530Z,95093.81
2022-10-22T20:40:14.743Z,95083.78
2022-10-22T20:42:41.894Z,95090.16
2022-10-22T20:45:09.844Z,95087.56
2022-10-22T20:47:50.787Z,95102.22
2022-10-22T20:50:19.192Z,95098.41
2022-10-22T20:52:46.278Z,95095.69
2022-10-22T20:57:46.977Z,95078.97
2022-10-22T21:00:14.712Z,95095.38
2022-10-22T21:02:41.789Z,95094.09
2022-10-22T21:05:09.467Z,95093.06
2022-10-22T21:07:36.506Z,95095.97
2022-10-22T21:10:04.626Z,95099.19
2022-10-22T21:12:31.618Z,95108.53
2022-10-22T21:14:58.682Z,95109.88
2022-10-22T21:17:25.769Z,95112.03
2022-10-22T21:19:52.709Z,95105.31
2022-10-22T21:22:19.767Z,95089.00
2022-10-22T21:24:46.688Z,95094.25
2022-10-22T21:27:13.819Z,95090.56
2022-10-22T21:29:40.793Z,95088.81
2022-10-22T21:32:07.936Z,95079.88
2022-10-22T21:34:38.226Z,95084.69
2022-10-22T21:37:06.086Z,95084.31
2022-10-22T21:39:33.301Z,95094.03
2022-10-22T21:42:00.224Z,95087.63
2022-10-22T21:44:27.260Z,95078.41
2022-10-22T21:46:54.366Z,95076.22
2022-10-22T21:49:21.596Z,95077.19
2022-10-22T21:51:48.753Z,95083.69
2022-10-22T21:54:15.919Z,95094.03
2022-10-22T21:56:43.093Z,95095.00
2022-10-22T21:59:10.210Z,95092.31
2022-10-22T22:01:37.271Z,95101.22
2022-10-22T22:04:04.572Z,95100.41
2022-10-22T22:06:33.370Z,95094.22
2022-10-22T22:09:01.645Z,95104.06
2022-10-22T22:11:29.291Z,95102.16
2022-10-22T22:13:57.611Z,95094.03
2022-10-22T22:16:28.593Z,95087.03
2022-10-22T22:18:58.462Z,95093.66
2022-10-22T22:21:25.554Z,95097.59
2022-10-22T22:23:52.767Z,95086.91
2022-10-22T22:26:25.467Z,95089.94
2022-10-22T22:28:56.450Z,95084.03
2022-10-22T22:31:26.234Z,95082.25
2022-10-22T22:34:08.117Z,95082.84
2022-10-22T22:36:38.588Z,95080.16
2022-10-22T22:39:08.413Z,95082.84
2022-10-22T22:41:35.483Z,95075.53
2022-10-22T22:44:02.756Z,95086.53
2022-10-22T22:46:29.782Z,95080.53
2022-10-22T22:48:56.725Z,95072.91
2022-10-22T22:51:23.860Z,95076.91
2022-10-22T22:53:51.339Z,95079.91
2022-10-22T22:56:23.902Z,95092.34
2022-10-22T22:58:51.311Z,95081.41
2022-10-22T23:01:21.408Z,95087.09
2022-10-22T23:04:00.132Z,95084.22
2022-10-22T23:06:29.494Z,95086.78
2022-10-22T23:08:57.201Z,95075.97
2022-10-22T23:11:25.900Z,95080.22
2022-10-22T23:14:00.958Z,95090.31
2022-10-22T23:16:31.085Z,95088.59
2022-10-22T23:18:59.066Z,95091.34
2022-10-22T23:21:29.239Z,95096.34
2022-10-22T23:24:00.194Z,95087.94
2022-10-22T23:26:33.804Z,95085.34
2022-10-22T23:29:06.284Z,95083.38
2022-10-22T23:31:33.892Z,95093.16
2022-10-22T23:34:01.323Z,95104.78
2022-10-22T23:36:28.738Z,95106.19
2022-10-22T23:38:56.074Z,95093.59
2022-10-22T23:41:24.046Z,95098.81
2022-10-22T23:43:51.076Z,95113.69
2022-10-22T23:46:18.108Z,95116.59
2022-10-22T23:48:45.399Z,95107.78
2022-10-22T23:51:15.207Z,95116.09
2022-10-22T23:53:44.155Z,95109.19
2022-10-22T23:56:16.803Z,95109.78
2022-10-22T23:58:44.595Z,95098.59
